sensor_id;sensor_type;location;lat;lon;timestamp;temperature;humidity
24800;DHT22;12897;50.812;4.430;2023-07-08T00:01:19;18.80;99.90
24800;DHT22;12897;50.812;4.430;2023-07-08T00:03:47;18.70;99.90
24800;DHT22;12897;50.812;4.430;2023-07-08T00:06:18;18.60;99.90
24800;DHT22;12897;50.812;4.430;2023-07-08T00:08:46;18.60;99.90
24800;DHT22;12897;50.812;4.430;2023-07-08T00:11:15;18.50;99.90
24800;DHT22;12897;50.812;4.430;2023-07-08T00:13:44;18.50;99.90
24800;DHT22;12897;50.812;4.430;2023-07-08T00:16:14;18.50;99.90
24800;DHT22;12897;50.812;4.430;2023-07-08T00:18:40;18.60;99.90
24800;DHT22;12897;50.812;4.430;2023-07-08T00:21:15;18.70;99.90
24800;DHT22;12897;50.812;4.430;2023-07-08T00:23:44;18.60;99.90
24800;DHT22;12897;50.812;4.430;2023-07-08T00:28:51;18.50;99.90
24800;DHT22;12897;50.812;4.430;2023-07-08T00:31:18;18.50;99.90
24800;DHT22;12897;50.812;4.430;2023-07-08T00:33:48;18.50;99.90
24800;DHT22;12897;50.812;4.430;2023-07-08T00:36:16;18.50;99.90
24800;DHT22;12897;50.812;4.430;2023-07-08T00:38:44;18.40;99.90
24800;DHT22;12897;50.812;4.430;2023-07-08T00:41:32;18.40;99.90
24800;DHT22;12897;50.812;4.430;2023-07-08T00:44:00;18.40;99.90
24800;DHT22;12897;50.812;4.430;2023-07-08T00:49:14;18.30;99.90
24800;DHT22;12897;50.812;4.430;2023-07-08T00:51:40;18.20;99.90
24800;DHT22;12897;50.812;4.430;2023-07-08T00:54:16;18.20;99.90
24800;DHT22;12897;50.812;4.430;2023-07-08T00:56:55;18.10;99.90
24800;DHT22;12897;50.812;4.430;2023-07-08T00:59:26;18.10;99.90
24800;DHT22;12897;50.812;4.430;2023-07-08T01:01:54;18.10;99.90
24800;DHT22;12897;50.812;4.430;2023-07-08T01:04:25;18.10;99.90
24800;DHT22;12897;50.812;4.430;2023-07-08T01:06:55;18.10;99.90
24800;DHT22;12897;50.812;4.430;2023-07-08T01:09:34;18.20;99.90
24800;DHT22;12897;50.812;4.430;2023-07-08T01:11:59;18.20;99.90
24800;DHT22;12897;50.812;4.430;2023-07-08T01:14:30;18.20;99.90
24800;DHT22;12897;50.812;4.430;2023-07-08T01:16:59;18.20;99.90
24800;DHT22;12897;50.812;4.430;2023-07-08T01:19:27;18.20;99.90
24800;DHT22;12897;50.812;4.430;2023-07-08T01:22:03;18.20;99.90
24800;DHT22;12897;50.812;4.430;2023-07-08T01:24:34;18.00;99.90
24800;DHT22;12897;50.812;4.430;2023-07-08T01:27:03;18.00;99.90
24800;DHT22;12897;50.812;4.430;2023-07-08T01:29:31;17.90;99.90
24800;DHT22;12897;50.812;4.430;2023-07-08T01:31:59;17.80;99.90
24800;DHT22;12897;50.812;4.430;2023-07-08T01:34:33;17.90;99.90
24800;DHT22;12897;50.812;4.430;2023-07-08T01:37:04;17.90;99.90
24800;DHT22;12897;50.812;4.430;2023-07-08T01:39:33;17.90;99.90
24800;DHT22;12897;50.812;4.430;2023-07-08T01:42:00;18.00;99.90
24800;DHT22;12897;50.812;4.430;2023-07-08T01:44:33;18.00;99.90
24800;DHT22;12897;50.812;4.430;2023-07-08T01:47:21;18.00;99.90
24800;DHT22;12897;50.812;4.430;2023-07-08T01:49:49;18.00;99.90
24800;DHT22;12897;50.812;4.430;2023-07-08T01:52:18;17.90;99.90
24800;DHT22;12897;50.812;4.430;2023-07-08T01:54:48;17.80;99.90
24800;DHT22;12897;50.812;4.430;2023-07-08T01:57:14;17.90;99.90
24800;DHT22;12897;50.812;4.430;2023-07-08T01:59:42;18.00;99.90
24800;DHT22;12897;50.812;4.430;2023-07-08T02:02:10;17.80;99.90
24800;DHT22;12897;50.812;4.430;2023-07-08T02:04:38;17.90;99.90
24800;DHT22;12897;50.812;4.430;2023-07-08T02:07:06;17.90;99.90
24800;DHT22;12897;50.812;4.430;2023-07-08T02:09:33;17.90;99.90
24800;DHT22;12897;50.812;4.430;2023-07-08T02:12:01;17.90;99.90
24800;DHT22;12897;50.812;4.430;2023-07-08T02:14:28;17.90;99.90
24800;DHT22;12897;50.812;4.430;2023-07-08T02:16:56;17.90;99.90
24800;DHT22;12897;50.812;4.430;2023-07-08T02:19:24;17.90;99.90
24800;DHT22;12897;50.812;4.430;2023-07-08T02:21:52;17.90;99.90
24800;DHT22;12897;50.812;4.430;2023-07-08T02:24:19;17.80;99.90
24800;DHT22;12897;50.812;4.430;2023-07-08T02:26:49;17.80;99.90
24800;DHT22;12897;50.812;4.430;2023-07-08T02:29:17;17.90;99.90
24800;DHT22;12897;50.812;4.430;2023-07-08T02:31:46;17.90;99.90
24800;DHT22;12897;50.812;4.430;2023-07-08T02:34:14;18.00;99.90
24800;DHT22;12897;50.812;4.430;2023-07-08T02:36:42;17.90;99.90
24800;DHT22;12897;50.812;4.430;2023-07-08T02:39:10;18.00;99.90
24800;DHT22;12897;50.812;4.430;2023-07-08T02:41:38;18.00;99.90
24800;DHT22;12897;50.812;4.430;2023-07-08T02:44:05;18.20;99.90
24800;DHT22;12897;50.812;4.430;2023-07-08T02:46:33;18.20;99.90
24800;DHT22;12897;50.812;4.430;2023-07-08T02:49:00;18.20;99.90
24800;DHT22;12897;50.812;4.430;2023-07-08T02:51:28;18.10;99.90
24800;DHT22;12897;50.812;4.430;2023-07-08T02:53:55;18.20;99.90
24800;DHT22;12897;50.812;4.430;2023-07-08T02:56:23;18.10;99.90
24800;DHT22;12897;50.812;4.430;2023-07-08T02:58:52;18.20;99.90
24800;DHT22;12897;50.812;4.430;2023-07-08T03:01:20;18.20;99.90
24800;DHT22;12897;50.812;4.430;2023-07-08T03:03:48;18.20;99.90
24800;DHT22;12897;50.812;4.430;2023-07-08T03:06:16;18.20;99.90
24800;DHT22;12897;50.812;4.430;2023-07-08T03:08:44;18.10;99.90
24800;DHT22;12897;50.812;4.430;2023-07-08T03:11:12;18.10;99.90
24800;DHT22;12897;50.812;4.430;2023-07-08T03:13:40;18.20;99.90
24800;DHT22;12897;50.812;4.430;2023-07-08T03:16:07;18.20;99.90
24800;DHT22;12897;50.812;4.430;2023-07-08T03:18:36;18.20;99.90
24800;DHT22;12897;50.812;4.430;2023-07-08T03:21:05;18.30;99.90
24800;DHT22;12897;50.812;4.430;2023-07-08T03:23:33;18.20;99.90
24800;DHT22;12897;50.812;4.430;2023-07-08T03:26:01;18.10;99.90
24800;DHT22;12897;50.812;4.430;2023-07-08T03:28:29;18.10;99.90
24800;DHT22;12897;50.812;4.430;2023-07-08T03:30:57;18.00;99.90
24800;DHT22;12897;50.812;4.430;2023-07-08T03:33:25;18.10;99.90
24800;DHT22;12897;50.812;4.430;2023-07-08T03:35:52;18.00;99.90
24800;DHT22;12897;50.812;4.430;2023-07-08T03:38:21;18.20;99.90
24800;DHT22;12897;50.812;4.430;2023-07-08T03:40:48;18.10;99.90
24800;DHT22;12897;50.812;4.430;2023-07-08T03:43:16;18.10;99.90
24800;DHT22;12897;50.812;4.430;2023-07-08T03:45:44;18.10;99.90
24800;DHT22;12897;50.812;4.430;2023-07-08T03:48:12;18.00;99.90
24800;DHT22;12897;50.812;4.430;2023-07-08T03:50:40;18.00;99.90
24800;DHT22;12897;50.812;4.430;2023-07-08T03:53:09;18.10;99.90
24800;DHT22;12897;50.812;4.430;2023-07-08T03:55:37;18.20;99.90
24800;DHT22;12897;50.812;4.430;2023-07-08T03:58:04;18.10;99.90
24800;DHT22;12897;50.812;4.430;2023-07-08T04:00:32;18.10;99.90
24800;DHT22;12897;50.812;4.430;2023-07-08T04:02:59;18.10;99.90
24800;DHT22;12897;50.812;4.430;2023-07-08T04:05:27;18.00;99.90
24800;DHT22;12897;50.812;4.430;2023-07-08T04:07:55;18.10;99.90
24800;DHT22;12897;50.812;4.430;2023-07-08T04:10:23;18.10;99.90
24800;DHT22;12897;50.812;4.430;2023-07-08T04:12:50;18.00;99.90
24800;DHT22;12897;50.812;4.430;2023-07-08T04:15:18;18.00;99.90
24800;DHT22;12897;50.812;4.430;2023-07-08T04:17:48;18.00;99.90
24800;DHT22;12897;50.812;4.430;2023-07-08T04:20:18;18.00;99.90
24800;DHT22;12897;50.812;4.430;2023-07-08T04:22:46;18.10;99.90
24800;DHT22;12897;50.812;4.430;2023-07-08T04:25:14;18.10;99.90
24800;DHT22;12897;50.812;4.430;2023-07-08T04:27:41;18.10;99.90
24800;DHT22;12897;50.812;4.430;2023-07-08T04:30:14;18.10;99.90
24800;DHT22;12897;50.812;4.430;2023-07-08T04:32:40;18.10;99.90
24800;DHT22;12897;50.812;4.430;2023-07-08T04:35:08;18.10;99.90
24800;DHT22;12897;50.812;4.430;2023-07-08T04:37:35;18.00;99.90
24800;DHT22;12897;50.812;4.430;2023-07-08T04:40:05;18.10;99.90
24800;DHT22;12897;50.812;4.430;2023-07-08T04:42:33;18.10;99.90
24800;DHT22;12897;50.812;4.430;2023-07-08T04:45:01;18.30;99.90
24800;DHT22;12897;50.812;4.430;2023-07-08T04:47:30;18.40;99.90
24800;DHT22;12897;50.812;4.430;2023-07-08T04:49:59;18.40;99.90
24800;DHT22;12897;50.812;4.430;2023-07-08T04:52:27;18.40;99.90
24800;DHT22;12897;50.812;4.430;2023-07-08T04:54:54;18.30;99.90
24800;DHT22;12897;50.812;4.430;2023-07-08T04:57:22;18.40;99.90
24800;DHT22;12897;50.812;4.430;2023-07-08T04:59:49;18.40;99.90
24800;DHT22;12897;50.812;4.430;2023-07-08T05:02:17;18.50;99.90
24800;DHT22;12897;50.812;4.430;2023-07-08T05:04:46;18.60;99.90
24800;DHT22;12897;50.812;4.430;2023-07-08T05:07:13;18.80;99.90
24800;DHT22;12897;50.812;4.430;2023-07-08T05:09:41;18.90;99.90
24800;DHT22;12897;50.812;4.430;2023-07-08T05:12:09;18.90;99.90
24800;DHT22;12897;50.812;4.430;2023-07-08T05:14:36;19.00;99.90
24800;DHT22;12897;50.812;4.430;2023-07-08T05:17:04;19.10;99.90
24800;DHT22;12897;50.812;4.430;2023-07-08T05:19:31;19.20;99.90
24800;DHT22;12897;50.812;4.430;2023-07-08T05:21:59;19.30;99.90
24800;DHT22;12897;50.812;4.430;2023-07-08T05:24:27;19.50;99.90
24800;DHT22;12897;50.812;4.430;2023-07-08T05:26:54;20.20;99.90
24800;DHT22;12897;50.812;4.430;2023-07-08T05:29:22;21.20;99.90
24800;DHT22;12897;50.812;4.430;2023-07-08T05:31:50;21.90;99.90
24800;DHT22;12897;50.812;4.430;2023-07-08T05:34:17;22.50;99.90
24800;DHT22;12897;50.812;4.430;2023-07-08T05:36:51;23.30;99.90
24800;DHT22;12897;50.812;4.430;2023-07-08T05:39:15;24.10;99.90
24800;DHT22;12897;50.812;4.430;2023-07-08T05:41:43;24.50;99.90
24800;DHT22;12897;50.812;4.430;2023-07-08T05:44:10;25.20;99.90
24800;DHT22;12897;50.812;4.430;2023-07-08T05:46:38;25.50;99.90
24800;DHT22;12897;50.812;4.430;2023-07-08T05:49:05;25.80;99.90
24800;DHT22;12897;50.812;4.430;2023-07-08T05:51:36;25.90;99.90
24800;DHT22;12897;50.812;4.430;2023-07-08T05:54:04;25.80;99.90
24800;DHT22;12897;50.812;4.430;2023-07-08T05:56:32;25.80;99.90
24800;DHT22;12897;50.812;4.430;2023-07-08T05:58:59;26.20;99.90
24800;DHT22;12897;50.812;4.430;2023-07-08T06:01:27;26.30;99.90
24800;DHT22;12897;50.812;4.430;2023-07-08T06:03:54;26.90;99.90
24800;DHT22;12897;50.812;4.430;2023-07-08T06:06:25;27.40;99.90
24800;DHT22;12897;50.812;4.430;2023-07-08T06:08:53;27.50;99.90
24800;DHT22;12897;50.812;4.430;2023-07-08T06:11:21;27.90;99.90
24800;DHT22;12897;50.812;4.430;2023-07-08T06:13:52;27.90;99.90
24800;DHT22;12897;50.812;4.430;2023-07-08T06:16:20;27.80;99.90
24800;DHT22;12897;50.812;4.430;2023-07-08T06:18:48;27.90;99.90
24800;DHT22;12897;50.812;4.430;2023-07-08T06:21:16;27.80;99.90
24800;DHT22;12897;50.812;4.430;2023-07-08T06:23:44;28.10;99.90
24800;DHT22;12897;50.812;4.430;2023-07-08T06:26:11;28.30;99.90
24800;DHT22;12897;50.812;4.430;2023-07-08T06:28:39;28.50;99.90
24800;DHT22;12897;50.812;4.430;2023-07-08T06:31:06;28.50;99.90
24800;DHT22;12897;50.812;4.430;2023-07-08T06:33:34;28.60;99.90
24800;DHT22;12897;50.812;4.430;2023-07-08T06:36:01;28.60;99.90
24800;DHT22;12897;50.812;4.430;2023-07-08T06:38:29;28.70;99.90
24800;DHT22;12897;50.812;4.430;2023-07-08T06:40:56;28.70;99.90
24800;DHT22;12897;50.812;4.430;2023-07-08T06:43:24;28.80;99.90
24800;DHT22;12897;50.812;4.430;2023-07-08T06:45:52;29.00;99.90
24800;DHT22;12897;50.812;4.430;2023-07-08T06:48:19;29.10;99.90
24800;DHT22;12897;50.812;4.430;2023-07-08T06:50:49;29.10;99.90
24800;DHT22;12897;50.812;4.430;2023-07-08T06:53:16;29.10;99.90
24800;DHT22;12897;50.812;4.430;2023-07-08T06:55:47;28.80;99.90
24800;DHT22;12897;50.812;4.430;2023-07-08T06:58:14;28.80;99.90
24800;DHT22;12897;50.812;4.430;2023-07-08T07:00:44;28.80;99.90
24800;DHT22;12897;50.812;4.430;2023-07-08T07:03:12;28.70;99.90
24800;DHT22;12897;50.812;4.430;2023-07-08T07:05:43;28.70;99.90
24800;DHT22;12897;50.812;4.430;2023-07-08T07:08:11;28.50;99.90
24800;DHT22;12897;50.812;4.430;2023-07-08T07:10:38;28.60;99.90
24800;DHT22;12897;50.812;4.430;2023-07-08T07:13:09;28.70;99.90
24800;DHT22;12897;50.812;4.430;2023-07-08T07:15:38;28.40;99.90
24800;DHT22;12897;50.812;4.430;2023-07-08T07:18:06;28.20;99.90
24800;DHT22;12897;50.812;4.430;2023-07-08T07:20:35;28.40;99.90
24800;DHT22;12897;50.812;4.430;2023-07-08T07:23:03;28.30;99.90
24800;DHT22;12897;50.812;4.430;2023-07-08T07:25:33;28.20;99.90
24800;DHT22;12897;50.812;4.430;2023-07-08T07:28:00;28.20;99.90
24800;DHT22;12897;50.812;4.430;2023-07-08T07:30:31;27.90;99.90
24800;DHT22;12897;50.812;4.430;2023-07-08T07:33:05;27.80;99.90
24800;DHT22;12897;50.812;4.430;2023-07-08T07:35:31;27.80;99.90
24800;DHT22;12897;50.812;4.430;2023-07-08T07:37:59;27.90;99.90
24800;DHT22;12897;50.812;4.430;2023-07-08T07:40:26;28.00;99.90
24800;DHT22;12897;50.812;4.430;2023-07-08T07:42:54;27.80;99.90
24800;DHT22;12897;50.812;4.430;2023-07-08T07:45:23;27.80;99.90
24800;DHT22;12897;50.812;4.430;2023-07-08T07:47:51;27.80;99.90
24800;DHT22;12897;50.812;4.430;2023-07-08T07:50:20;28.00;99.90
24800;DHT22;12897;50.812;4.430;2023-07-08T07:52:49;28.20;99.90
24800;DHT22;12897;50.812;4.430;2023-07-08T07:55:18;28.20;99.90
24800;DHT22;12897;50.812;4.430;2023-07-08T07:57:45;28.30;99.90
24800;DHT22;12897;50.812;4.430;2023-07-08T08:00:14;28.50;99.90
24800;DHT22;12897;50.812;4.430;2023-07-08T08:02:46;28.50;99.90
24800;DHT22;12897;50.812;4.430;2023-07-08T08:05:13;28.50;99.90
24800;DHT22;12897;50.812;4.430;2023-07-08T08:07:41;28.60;99.90
24800;DHT22;12897;50.812;4.430;2023-07-08T08:10:09;28.60;99.90
24800;DHT22;12897;50.812;4.430;2023-07-08T08:12:36;28.60;97.20
24800;DHT22;12897;50.812;4.430;2023-07-08T08:15:06;28.30;98.20
24800;DHT22;12897;50.812;4.430;2023-07-08T08:17:34;28.40;98.30
24800;DHT22;12897;50.812;4.430;2023-07-08T08:20:06;28.40;98.00
24800;DHT22;12897;50.812;4.430;2023-07-08T08:22:37;28.30;97.90
24800;DHT22;12897;50.812;4.430;2023-07-08T08:25:07;28.10;98.00
24800;DHT22;12897;50.812;4.430;2023-07-08T08:27:34;28.10;97.90
24800;DHT22;12897;50.812;4.430;2023-07-08T08:30:06;28.10;98.20
24800;DHT22;12897;50.812;4.430;2023-07-08T08:32:35;28.20;98.30
24800;DHT22;12897;50.812;4.430;2023-07-08T08:35:05;28.40;98.40
24800;DHT22;12897;50.812;4.430;2023-07-08T08:37:36;28.30;98.90
24800;DHT22;12897;50.812;4.430;2023-07-08T08:40:09;28.30;99.30
24800;DHT22;12897;50.812;4.430;2023-07-08T08:42:43;28.30;99.30
24800;DHT22;12897;50.812;4.430;2023-07-08T08:45:15;28.50;99.90
24800;DHT22;12897;50.812;4.430;2023-07-08T08:47:51;28.50;98.20
24800;DHT22;12897;50.812;4.430;2023-07-08T08:52:56;28.60;97.80
24800;DHT22;12897;50.812;4.430;2023-07-08T08:55:27;28.50;99.40
24800;DHT22;12897;50.812;4.430;2023-07-08T08:58:27;28.60;98.50
24800;DHT22;12897;50.812;4.430;2023-07-08T09:01:08;28.60;98.50
24800;DHT22;12897;50.812;4.430;2023-07-08T09:06:28;28.70;98.40
24800;DHT22;12897;50.812;4.430;2023-07-08T09:09:06;28.70;96.70
24800;DHT22;12897;50.812;4.430;2023-07-08T09:14:27;28.90;95.60
24800;DHT22;12897;50.812;4.430;2023-07-08T09:25:04;29.30;95.00
24800;DHT22;12897;50.812;4.430;2023-07-08T09:27:34;29.50;95.40
24800;DHT22;12897;50.812;4.430;2023-07-08T09:30:08;29.60;94.70
24800;DHT22;12897;50.812;4.430;2023-07-08T09:32:37;29.70;95.80
24800;DHT22;12897;50.812;4.430;2023-07-08T09:35:07;29.50;94.50
24800;DHT22;12897;50.812;4.430;2023-07-08T09:37:37;29.30;94.60
24800;DHT22;12897;50.812;4.430;2023-07-08T09:40:27;29.30;93.70
24800;DHT22;12897;50.812;4.430;2023-07-08T09:43:03;29.30;93.70
24800;DHT22;12897;50.812;4.430;2023-07-08T09:45:40;29.20;93.20
24800;DHT22;12897;50.812;4.430;2023-07-08T09:48:02;29.30;93.30
24800;DHT22;12897;50.812;4.430;2023-07-08T09:50:32;29.20;93.90
24800;DHT22;12897;50.812;4.430;2023-07-08T09:53:00;29.30;92.50
24800;DHT22;12897;50.812;4.430;2023-07-08T09:55:28;29.30;92.40
24800;DHT22;12897;50.812;4.430;2023-07-08T09:57:59;29.30;91.30
24800;DHT22;12897;50.812;4.430;2023-07-08T10:00:29;29.50;91.80
24800;DHT22;12897;50.812;4.430;2023-07-08T10:03:04;29.70;91.30
24800;DHT22;12897;50.812;4.430;2023-07-08T10:05:40;29.60;91.60
24800;DHT22;12897;50.812;4.430;2023-07-08T10:08:19;29.60;91.20
24800;DHT22;12897;50.812;4.430;2023-07-08T10:10:43;29.60;91.10
24800;DHT22;12897;50.812;4.430;2023-07-08T10:16:19;30.10;90.70
24800;DHT22;12897;50.812;4.430;2023-07-08T10:18:44;30.00;90.90
24800;DHT22;12897;50.812;4.430;2023-07-08T10:29:37;29.80;89.60
24800;DHT22;12897;50.812;4.430;2023-07-08T10:32:19;29.90;89.60
24800;DHT22;12897;50.812;4.430;2023-07-08T10:35:08;29.90;90.10
24800;DHT22;12897;50.812;4.430;2023-07-08T10:38:05;29.90;90.40
24800;DHT22;12897;50.812;4.430;2023-07-08T10:46:26;30.50;89.70
24800;DHT22;12897;50.812;4.430;2023-07-08T10:49:20;30.10;90.60
24800;DHT22;12897;50.812;4.430;2023-07-08T10:54:47;30.40;89.30
24800;DHT22;12897;50.812;4.430;2023-07-08T10:57:35;30.50;89.80
24800;DHT22;12897;50.812;4.430;2023-07-08T11:03:30;30.50;87.40
24800;DHT22;12897;50.812;4.430;2023-07-08T11:05:59;30.90;87.00
24800;DHT22;12897;50.812;4.430;2023-07-08T11:08:32;30.60;85.20
24800;DHT22;12897;50.812;4.430;2023-07-08T11:11:27;30.70;85.00
24800;DHT22;12897;50.812;4.430;2023-07-08T11:16:30;30.80;84.70
24800;DHT22;12897;50.812;4.430;2023-07-08T11:19:16;31.00;83.80
24800;DHT22;12897;50.812;4.430;2023-07-08T11:21:52;30.90;83.20
24800;DHT22;12897;50.812;4.430;2023-07-08T11:24:30;31.00;83.90
24800;DHT22;12897;50.812;4.430;2023-07-08T11:29:37;31.00;83.60
24800;DHT22;12897;50.812;4.430;2023-07-08T11:32:06;31.10;83.70
24800;DHT22;12897;50.812;4.430;2023-07-08T11:34:35;31.20;82.20
24800;DHT22;12897;50.812;4.430;2023-07-08T11:37:04;31.50;79.70
24800;DHT22;12897;50.812;4.430;2023-07-08T11:39:40;31.60;78.60
24800;DHT22;12897;50.812;4.430;2023-07-08T11:42:16;31.80;76.90
24800;DHT22;12897;50.812;4.430;2023-07-08T11:44:58;31.80;76.50
24800;DHT22;12897;50.812;4.430;2023-07-08T11:47:31;31.80;76.60
24800;DHT22;12897;50.812;4.430;2023-07-08T11:49:56;31.70;76.30
24800;DHT22;12897;50.812;4.430;2023-07-08T11:52:23;31.60;76.40
24800;DHT22;12897;50.812;4.430;2023-07-08T11:55:12;31.70;76.90
24800;DHT22;12897;50.812;4.430;2023-07-08T11:57:38;31.80;77.80
24800;DHT22;12897;50.812;4.430;2023-07-08T12:00:22;31.40;79.10
24800;DHT22;12897;50.812;4.430;2023-07-08T12:02:57;31.70;78.50
24800;DHT22;12897;50.812;4.430;2023-07-08T12:05:32;31.80;77.70
24800;DHT22;12897;50.812;4.430;2023-07-08T12:08:02;32.00;76.40
24800;DHT22;12897;50.812;4.430;2023-07-08T12:10:33;32.20;76.10
24800;DHT22;12897;50.812;4.430;2023-07-08T12:13:02;32.00;76.30
24800;DHT22;12897;50.812;4.430;2023-07-08T12:15:32;32.20;75.80
24800;DHT22;12897;50.812;4.430;2023-07-08T12:20:39;32.30;75.30
24800;DHT22;12897;50.812;4.430;2023-07-08T12:23:19;32.30;75.00
24800;DHT22;12897;50.812;4.430;2023-07-08T12:25:47;32.40;75.00
24800;DHT22;12897;50.812;4.430;2023-07-08T12:28:24;32.40;75.00
24800;DHT22;12897;50.812;4.430;2023-07-08T12:30:56;32.30;74.80
24800;DHT22;12897;50.812;4.430;2023-07-08T12:33:28;31.70;76.80
24800;DHT22;12897;50.812;4.430;2023-07-08T12:35:55;32.00;76.80
24800;DHT22;12897;50.812;4.430;2023-07-08T12:38:36;32.30;75.20
24800;DHT22;12897;50.812;4.430;2023-07-08T12:41:17;32.40;75.10
24800;DHT22;12897;50.812;4.430;2023-07-08T12:43:46;32.50;76.10
24800;DHT22;12897;50.812;4.430;2023-07-08T12:46:18;32.60;76.20
24800;DHT22;12897;50.812;4.430;2023-07-08T12:48:48;32.20;85.50
24800;DHT22;12897;50.812;4.430;2023-07-08T12:51:18;30.60;99.40
24800;DHT22;12897;50.812;4.430;2023-07-08T12:53:51;28.80;99.90
24800;DHT22;12897;50.812;4.430;2023-07-08T12:56:26;27.00;99.90
24800;DHT22;12897;50.812;4.430;2023-07-08T12:58:57;25.90;99.90
24800;DHT22;12897;50.812;4.430;2023-07-08T13:01:28;25.20;99.90
24800;DHT22;12897;50.812;4.430;2023-07-08T13:04:00;24.70;99.90
24800;DHT22;12897;50.812;4.430;2023-07-08T13:06:31;24.10;99.90
24800;DHT22;12897;50.812;4.430;2023-07-08T13:09:07;24.10;99.90
24800;DHT22;12897;50.812;4.430;2023-07-08T13:11:31;24.30;99.90
24800;DHT22;12897;50.812;4.430;2023-07-08T13:14:09;24.30;99.90
24800;DHT22;12897;50.812;4.430;2023-07-08T13:16:33;24.20;99.90
24800;DHT22;12897;50.812;4.430;2023-07-08T13:19:07;24.20;99.90
24800;DHT22;12897;50.812;4.430;2023-07-08T13:21:32;24.30;99.90
24800;DHT22;12897;50.812;4.430;2023-07-08T13:24:06;24.50;99.90
24800;DHT22;12897;50.812;4.430;2023-07-08T13:26:33;24.80;99.90
24800;DHT22;12897;50.812;4.430;2023-07-08T13:29:18;25.20;99.90
24800;DHT22;12897;50.812;4.430;2023-07-08T13:32:04;25.40;99.90
24800;DHT22;12897;50.812;4.430;2023-07-08T13:34:24;25.70;99.90
24800;DHT22;12897;50.812;4.430;2023-07-08T13:36:52;25.50;99.90
24800;DHT22;12897;50.812;4.430;2023-07-08T13:39:31;25.60;99.90
24800;DHT22;12897;50.812;4.430;2023-07-08T13:41:59;25.50;99.90
24800;DHT22;12897;50.812;4.430;2023-07-08T13:44:30;25.70;99.90
24800;DHT22;12897;50.812;4.430;2023-07-08T13:46:59;26.00;99.90
24800;DHT22;12897;50.812;4.430;2023-07-08T13:49:31;26.30;99.90
24800;DHT22;12897;50.812;4.430;2023-07-08T13:52:14;26.80;99.90
24800;DHT22;12897;50.812;4.430;2023-07-08T13:54:45;27.30;99.90
24800;DHT22;12897;50.812;4.430;2023-07-08T13:57:15;27.50;99.90
24800;DHT22;12897;50.812;4.430;2023-07-08T13:59:44;27.50;99.90
24800;DHT22;12897;50.812;4.430;2023-07-08T14:02:24;27.80;99.90
24800;DHT22;12897;50.812;4.430;2023-07-08T14:04:53;28.20;99.90
24800;DHT22;12897;50.812;4.430;2023-07-08T14:07:22;28.80;99.90
24800;DHT22;12897;50.812;4.430;2023-07-08T14:09:53;29.00;99.90
24800;DHT22;12897;50.812;4.430;2023-07-08T14:12:23;29.30;99.90
24800;DHT22;12897;50.812;4.430;2023-07-08T14:14:55;29.80;99.90
24800;DHT22;12897;50.812;4.430;2023-07-08T14:17:23;29.90;99.90
24800;DHT22;12897;50.812;4.430;2023-07-08T14:19:54;29.80;99.90
24800;DHT22;12897;50.812;4.430;2023-07-08T14:22:26;29.90;99.90
24800;DHT22;12897;50.812;4.430;2023-07-08T14:24:54;29.90;99.90
24800;DHT22;12897;50.812;4.430;2023-07-08T14:27:24;29.50;99.90
24800;DHT22;12897;50.812;4.430;2023-07-08T14:29:52;29.40;99.90
24800;DHT22;12897;50.812;4.430;2023-07-08T14:32:22;29.50;99.90
24800;DHT22;12897;50.812;4.430;2023-07-08T14:34:54;29.50;99.90
24800;DHT22;12897;50.812;4.430;2023-07-08T14:37:24;29.30;99.90
24800;DHT22;12897;50.812;4.430;2023-07-08T14:39:52;28.80;99.90
24800;DHT22;12897;50.812;4.430;2023-07-08T14:42:20;28.60;99.90
24800;DHT22;12897;50.812;4.430;2023-07-08T14:44:52;28.50;99.90
24800;DHT22;12897;50.812;4.430;2023-07-08T14:47:21;28.50;99.90
24800;DHT22;12897;50.812;4.430;2023-07-08T14:49:49;28.50;99.90
24800;DHT22;12897;50.812;4.430;2023-07-08T14:52:24;28.70;99.90
24800;DHT22;12897;50.812;4.430;2023-07-08T14:54:50;29.00;99.90
24800;DHT22;12897;50.812;4.430;2023-07-08T14:57:25;29.00;99.90
24800;DHT22;12897;50.812;4.430;2023-07-08T14:59:54;29.20;99.90
24800;DHT22;12897;50.812;4.430;2023-07-08T15:02:27;29.20;99.90
24800;DHT22;12897;50.812;4.430;2023-07-08T15:04:51;29.20;99.90
24800;DHT22;12897;50.812;4.430;2023-07-08T15:07:23;29.20;99.90
24800;DHT22;12897;50.812;4.430;2023-07-08T15:09:52;29.00;99.90
24800;DHT22;12897;50.812;4.430;2023-07-08T15:12:24;29.20;99.90
24800;DHT22;12897;50.812;4.430;2023-07-08T15:14:51;29.40;99.90
24800;DHT22;12897;50.812;4.430;2023-07-08T15:17:20;29.40;99.90
24800;DHT22;12897;50.812;4.430;2023-07-08T15:19:48;29.30;99.90
24800;DHT22;12897;50.812;4.430;2023-07-08T15:22:22;29.30;99.90
24800;DHT22;12897;50.812;4.430;2023-07-08T15:24:48;29.30;99.90
24800;DHT22;12897;50.812;4.430;2023-07-08T15:27:18;29.20;99.90
24800;DHT22;12897;50.812;4.430;2023-07-08T15:29:47;29.30;99.90
24800;DHT22;12897;50.812;4.430;2023-07-08T15:32:15;29.40;99.90
24800;DHT22;12897;50.812;4.430;2023-07-08T15:34:46;29.40;99.90
24800;DHT22;12897;50.812;4.430;2023-07-08T15:37:13;29.50;99.90
24800;DHT22;12897;50.812;4.430;2023-07-08T15:39:41;29.50;99.90
24800;DHT22;12897;50.812;4.430;2023-07-08T15:42:13;29.60;99.90
24800;DHT22;12897;50.812;4.430;2023-07-08T15:44:40;29.90;99.90
24800;DHT22;12897;50.812;4.430;2023-07-08T15:47:11;30.30;99.90
24800;DHT22;12897;50.812;4.430;2023-07-08T15:49:40;30.30;99.90
24800;DHT22;12897;50.812;4.430;2023-07-08T15:52:08;30.50;99.90
24800;DHT22;12897;50.812;4.430;2023-07-08T15:54:37;30.60;99.90
24800;DHT22;12897;50.812;4.430;2023-07-08T15:57:07;30.70;99.90
24800;DHT22;12897;50.812;4.430;2023-07-08T15:59:34;30.60;99.90
24800;DHT22;12897;50.812;4.430;2023-07-08T16:02:04;30.60;99.90
24800;DHT22;12897;50.812;4.430;2023-07-08T16:04:33;30.60;99.90
24800;DHT22;12897;50.812;4.430;2023-07-08T16:07:01;30.60;99.90
24800;DHT22;12897;50.812;4.430;2023-07-08T16:09:29;30.70;99.90
24800;DHT22;12897;50.812;4.430;2023-07-08T16:11:56;30.90;99.90
24800;DHT22;12897;50.812;4.430;2023-07-08T16:14:24;31.00;99.90
24800;DHT22;12897;50.812;4.430;2023-07-08T16:16:55;31.20;99.90
24800;DHT22;12897;50.812;4.430;2023-07-08T16:19:27;31.20;99.90
24800;DHT22;12897;50.812;4.430;2023-07-08T16:21:55;31.20;99.90
24800;DHT22;12897;50.812;4.430;2023-07-08T16:24:22;31.00;99.90
24800;DHT22;12897;50.812;4.430;2023-07-08T16:26:52;30.90;99.90
24800;DHT22;12897;50.812;4.430;2023-07-08T16:29:22;31.00;99.90
24800;DHT22;12897;50.812;4.430;2023-07-08T16:31:52;30.90;99.90
24800;DHT22;12897;50.812;4.430;2023-07-08T16:34:21;30.90;99.90
24800;DHT22;12897;50.812;4.430;2023-07-08T16:36:51;31.10;99.90
24800;DHT22;12897;50.812;4.430;2023-07-08T16:39:22;31.30;99.90
24800;DHT22;12897;50.812;4.430;2023-07-08T16:41:51;31.60;99.90